createdAt,value
2023-12-30T00:00:22.196Z,5.72
2023-12-30T00:01:24.881Z,6.03
2023-12-30T00:02:27.305Z,6.72
2023-12-30T00:03:29.869Z,4.53
2023-12-30T00:04:32.537Z,6.70
2023-12-30T00:05:35.317Z,7.10
2023-12-30T00:06:37.715Z,5.43
2023-12-30T00:07:40.060Z,5.30
2023-12-30T00:08:42.622Z,5.72
2023-12-30T00:09:44.858Z,2.92
2023-12-30T00:10:47.846Z,4.97
2023-12-30T00:11:50.527Z,4.93
2023-12-30T00:12:52.977Z,5.35
2023-12-30T00:13:55.578Z,4.10
2023-12-30T00:14:57.838Z,5.13
2023-12-30T00:16:00.622Z,4.45
2023-12-30T00:17:03.082Z,4.43
2023-12-30T00:18:05.667Z,2.90
2023-12-30T00:19:08.059Z,7.13
2023-12-30T00:20:10.654Z,3.55
2023-12-30T00:21:13.651Z,4.93
2023-12-30T00:22:15.972Z,3.88
2023-12-30T00:23:19.284Z,4.95
2023-12-30T00:24:21.528Z,6.80
2023-12-30T00:25:23.925Z,2.72
2023-12-30T00:26:31.227Z,4.25
2023-12-30T00:27:53.132Z,4.32
2023-12-30T00:28:55.554Z,4.50
2023-12-30T00:29:57.954Z,5.30
2023-12-30T00:31:00.487Z,4.40
2023-12-30T00:32:04.371Z,3.47
2023-12-30T00:33:07.235Z,3.92
2023-12-30T00:34:09.748Z,4.13
2023-12-30T00:35:12.141Z,4.68
2023-12-30T00:36:14.525Z,3.53
2023-12-30T00:37:21.523Z,3.10
2023-12-30T00:38:24.853Z,3.50
2023-12-30T00:39:27.584Z,3.78
2023-12-30T00:40:30.039Z,5.60
2023-12-30T00:41:32.406Z,3.55
2023-12-30T00:42:34.767Z,5.50
2023-12-30T00:43:38.407Z,4.65
2023-12-30T00:44:40.887Z,2.63
2023-12-30T00:45:43.162Z,4.00
2023-12-30T00:46:49.472Z,3.92
2023-12-30T00:47:51.976Z,3.42
2023-12-30T00:48:57.489Z,6.43
2023-12-30T00:50:02.007Z,4.70
2023-12-30T00:51:04.535Z,3.85
2023-12-30T00:52:07.138Z,4.18
2023-12-30T00:53:09.508Z,5.03
2023-12-30T00:54:12.020Z,4.22
2023-12-30T00:55:14.411Z,5.32
2023-12-30T00:56:17.094Z,5.38
2023-12-30T00:57:19.445Z,5.95
2023-12-30T00:58:22.468Z,3.42
2023-12-30T00:59:25.037Z,4.50
2023-12-30T01:00:27.431Z,3.88
2023-12-30T01:01:29.903Z,3.17
2023-12-30T01:02:32.375Z,5.90
2023-12-30T01:03:34.909Z,4.40
2023-12-30T01:04:37.354Z,3.55
2023-12-30T01:05:39.792Z,2.30
2023-12-30T01:06:42.201Z,4.50
2023-12-30T01:07:44.530Z,3.60
2023-12-30T01:08:46.937Z,5.03
2023-12-30T01:09:49.561Z,3.50
2023-12-30T01:10:52.001Z,4.55
2023-12-30T01:11:54.615Z,3.42
2023-12-30T01:12:56.876Z,3.45
2023-12-30T01:13:59.352Z,7.78
2023-12-30T01:15:01.854Z,4.50
2023-12-30T01:16:07.737Z,4.60
2023-12-30T01:17:10.308Z,3.80
2023-12-30T01:18:12.994Z,4.88
2023-12-30T01:19:15.690Z,3.55
2023-12-30T01:20:18.207Z,8.07
2023-12-30T01:21:20.574Z,3.22
2023-12-30T01:22:23.303Z,2.65
2023-12-30T01:23:26.081Z,2.63
2023-12-30T01:24:29.187Z,2.38
2023-12-30T01:25:31.687Z,2.78
2023-12-30T01:26:34.380Z,5.13
2023-12-30T01:27:36.798Z,5.35
2023-12-30T01:28:39.473Z,4.55
2023-12-30T01:29:42.009Z,4.68
2023-12-30T01:30:44.752Z,3.42
2023-12-30T01:31:47.489Z,3.05
2023-12-30T01:32:50.202Z,3.15
2023-12-30T01:33:52.748Z,6.43
2023-12-30T01:34:55.145Z,4.07
2023-12-30T01:35:57.687Z,4.15
2023-12-30T01:37:00.243Z,5.07
2023-12-30T01:38:04.968Z,4.07
2023-12-30T01:39:08.763Z,3.63
2023-12-30T01:40:11.504Z,4.25
2023-12-30T01:41:13.945Z,3.72
2023-12-30T01:42:16.396Z,4.35
2023-12-30T01:43:29.833Z,3.70
2023-12-30T01:44:32.348Z,4.68
2023-12-30T01:45:34.862Z,4.63
2023-12-30T01:46:37.302Z,6.15
2023-12-30T01:47:40.187Z,7.10
2023-12-30T01:48:42.792Z,4.35
2023-12-30T01:49:45.892Z,5.18
2023-12-30T01:50:50.046Z,4.15
2023-12-30T01:51:53.335Z,5.18
2023-12-30T01:52:55.824Z,7.85
2023-12-30T01:53:58.984Z,5.00
2023-12-30T01:55:01.624Z,5.75
2023-12-30T01:56:04.874Z,7.70
2023-12-30T01:57:07.711Z,5.88
2023-12-30T01:58:10.653Z,5.47
2023-12-30T01:59:16.499Z,7.18
2023-12-30T02:00:23.223Z,4.85
2023-12-30T02:01:28.255Z,6.80
2023-12-30T02:02:30.735Z,7.53
2023-12-30T02:03:33.702Z,7.70
2023-12-30T02:04:36.099Z,6.57
2023-12-30T02:05:39.645Z,6.78
2023-12-30T02:06:41.984Z,7.00
2023-12-30T02:07:46.127Z,5.93
2023-12-30T02:08:48.834Z,6.60
2023-12-30T02:09:51.302Z,7.55
2023-12-30T02:10:53.622Z,8.43
2023-12-30T02:11:56.421Z,5.97
2023-12-30T02:12:59.854Z,7.28
2023-12-30T02:14:02.848Z,6.82
2023-12-30T02:15:23.058Z,8.55
2023-12-30T02:16:25.541Z,6.35
2023-12-30T02:17:28.063Z,5.80
2023-12-30T02:18:31.052Z,5.32
2023-12-30T02:19:35.156Z,7.80
2023-12-30T02:20:37.860Z,6.03
2023-12-30T02:21:40.188Z,6.43
2023-12-30T02:22:49.134Z,8.95
2023-12-30T02:23:53.585Z,8.10
2023-12-30T02:25:01.058Z,8.48
2023-12-30T02:26:03.735Z,8.15
2023-12-30T02:27:06.472Z,9.45
2023-12-30T02:28:09.118Z,6.78
2023-12-30T02:29:12.190Z,7.68
2023-12-30T02:30:15.269Z,7.68
2023-12-30T02:31:18.046Z,8.35
2023-12-30T02:32:20.480Z,6.65
2023-12-30T02:33:23.177Z,7.78
2023-12-30T02:34:26.463Z,8.52
2023-12-30T02:35:28.955Z,10.13
2023-12-30T02:36:31.489Z,9.65
2023-12-30T02:37:34.792Z,10.45
2023-12-30T02:38:37.257Z,9.80
2023-12-30T02:39:39.730Z,9.32
2023-12-30T02:40:42.497Z,7.30
2023-12-30T02:41:44.909Z,7.50
2023-12-30T02:42:47.292Z,9.13
2023-12-30T02:44:08.316Z,6.78
2023-12-30T02:45:11.285Z,7.88
2023-12-30T02:46:14.217Z,10.10
2023-12-30T02:47:16.486Z,9.27
2023-12-30T02:48:19.163Z,10.07
2023-12-30T02:49:21.649Z,6.93
2023-12-30T02:50:24.428Z,8.57
2023-12-30T02:51:27.637Z,6.65
2023-12-30T02:52:31.724Z,10.95
2023-12-30T02:53:34.282Z,6.18
2023-12-30T02:54:37.214Z,6.72
2023-12-30T02:55:39.551Z,7.68
2023-12-30T02:56:42.202Z,7.78
2023-12-30T02:57:49.055Z,9.25
2023-12-30T02:59:02.882Z,8.82
2023-12-30T03:00:06.484Z,9.88
2023-12-30T03:01:08.995Z,9.45
2023-12-30T03:02:11.361Z,9.93
2023-12-30T03:03:13.747Z,7.30
2023-12-30T03:04:16.063Z,9.98
2023-12-30T03:05:19.147Z,8.60
2023-12-30T03:06:25.510Z,7.07
2023-12-30T03:07:27.977Z,10.25
2023-12-30T03:08:30.263Z,9.82
2023-12-30T03:09:33.031Z,8.15
2023-12-30T03:10:35.717Z,5.70
2023-12-30T03:11:38.211Z,10.10
2023-12-30T03:12:40.715Z,8.45
2023-12-30T03:13:43.702Z,6.45
2023-12-30T03:14:46.147Z,5.55
2023-12-30T03:15:49.257Z,6.35
2023-12-30T03:16:51.665Z,6.13
2023-12-30T03:17:54.127Z,9.32
2023-12-30T03:18:57.017Z,6.93
2023-12-30T03:19:59.608Z,6.97
2023-12-30T03:21:02.111Z,7.55
2023-12-30T03:22:04.588Z,7.95
2023-12-30T03:23:07.512Z,6.82
2023-12-30T03:24:09.889Z,5.95
2023-12-30T03:25:12.366Z,7.80
2023-12-30T03:26:14.811Z,6.13
2023-12-30T03:27:17.164Z,6.50
2023-12-30T03:28:19.565Z,6.05
2023-12-30T03:29:24.461Z,9.57
2023-12-30T03:30:27.116Z,7.10
2023-12-30T03:31:29.659Z,6.65
2023-12-30T03:32:32.326Z,7.50
2023-12-30T03:33:35.099Z,7.82
2023-12-30T03:34:37.975Z,7.90
2023-12-30T03:35:40.293Z,6.13
2023-12-30T03:36:43.065Z,8.80
2023-12-30T03:37:45.338Z,7.05
2023-12-30T03:38:51.918Z,5.60
2023-12-30T03:39:54.374Z,5.80
2023-12-30T03:40:58.403Z,6.30
2023-12-30T03:42:00.943Z,6.47
2023-12-30T03:43:04.988Z,6.85
2023-12-30T03:44:07.820Z,6.45
2023-12-30T03:45:11.000Z,9.35
2023-12-30T03:46:14.046Z,6.07
2023-12-30T03:47:16.513Z,7.47
2023-12-30T03:48:18.930Z,5.75
2023-12-30T03:49:21.663Z,10.05
2023-12-30T03:50:24.176Z,7.75
2023-12-30T03:51:26.517Z,6.25
2023-12-30T03:52:30.862Z,6.22
2023-12-30T03:53:34.313Z,4.95
2023-12-30T03:54:36.827Z,6.97
2023-12-30T03:55:39.172Z,7.10
2023-12-30T03:56:41.742Z,5.03
2023-12-30T03:57:45.019Z,4.82
2023-12-30T03:58:47.483Z,6.25
2023-12-30T03:59:50.149Z,6.13
2023-12-30T04:00:52.751Z,9.95
2023-12-30T04:01:55.387Z,5.45
2023-12-30T04:02:57.766Z,6.25
2023-12-30T04:04:00.500Z,5.55
2023-12-30T04:05:03.793Z,5.90
2023-12-30T04:06:06.271Z,4.28
2023-12-30T04:07:08.585Z,8.23
2023-12-30T04:08:11.054Z,5.88
2023-12-30T04:09:13.700Z,6.00
2023-12-30T04:10:18.734Z,5.80
2023-12-30T04:11:21.278Z,5.38
2023-12-30T04:12:23.773Z,8.30
2023-12-30T04:13:26.582Z,4.45
2023-12-30T04:14:28.975Z,7.30
2023-12-30T04:15:32.023Z,8.30
2023-12-30T04:16:34.452Z,7.10
2023-12-30T04:17:37.223Z,5.95
2023-12-30T04:18:39.871Z,6.30
2023-12-30T04:19:42.316Z,6.13
2023-12-30T04:20:44.626Z,7.03
2023-12-30T04:21:47.264Z,5.75
2023-12-30T04:22:49.581Z,7.47
2023-12-30T04:23:52.150Z,5.35
2023-12-30T04:24:55.941Z,4.30
2023-12-30T04:25:58.370Z,4.55
2023-12-30T04:27:00.782Z,5.18
2023-12-30T04:28:03.157Z,4.93
2023-12-30T04:29:05.539Z,5.47
2023-12-30T04:30:08.530Z,3.90
2023-12-30T04:31:11.479Z,6.03
2023-12-30T04:32:13.858Z,5.07
2023-12-30T04:33:16.269Z,5.97
2023-12-30T04:34:18.740Z,4.88
2023-12-30T04:35:21.224Z,4.50
2023-12-30T04:36:23.829Z,7.50
2023-12-30T04:37:26.295Z,6.45
2023-12-30T04:38:28.818Z,8.27
2023-12-30T04:39:31.379Z,4.78
2023-12-30T04:40:34.742Z,4.53
2023-12-30T04:41:37.207Z,4.40
2023-12-30T04:42:39.637Z,4.25
2023-12-30T04:43:42.483Z,5.05
2023-12-30T04:44:44.883Z,5.93
2023-12-30T04:45:47.941Z,6.85
2023-12-30T04:46:50.281Z,7.78
2023-12-30T04:47:54.926Z,4.05
2023-12-30T04:48:57.826Z,4.05
2023-12-30T04:50:00.550Z,4.90
2023-12-30T04:51:03.671Z,4.07
2023-12-30T04:52:06.391Z,8.20
2023-12-30T04:53:08.971Z,5.10
2023-12-30T04:54:11.999Z,4.40
2023-12-30T04:55:14.730Z,7.45
2023-12-30T04:56:18.095Z,4.82
2023-12-30T04:57:20.656Z,5.93
2023-12-30T04:58:23.097Z,4.75
2023-12-30T04:59:27.875Z,5.35
2023-12-30T05:00:30.612Z,5.50
2023-12-30T05:01:33.169Z,3.92
2023-12-30T05:02:35.644Z,4.28
2023-12-30T05:03:38.306Z,4.93
2023-12-30T05:04:44.683Z,4.03
2023-12-30T05:05:47.052Z,7.10
2023-12-30T05:06:49.643Z,3.38
2023-12-30T05:07:52.059Z,4.65
2023-12-30T05:08:54.744Z,4.68
2023-12-30T05:09:57.157Z,4.55
2023-12-30T05:10:59.621Z,5.03
2023-12-30T05:12:02.003Z,4.85
2023-12-30T05:13:05.504Z,4.32
2023-12-30T05:14:08.247Z,2.85
2023-12-30T05:15:14.644Z,3.15
2023-12-30T05:16:17.244Z,3.17
2023-12-30T05:17:19.892Z,4.00
2023-12-30T05:18:22.762Z,5.28
2023-12-30T05:19:25.159Z,3.40
2023-12-30T05:20:27.626Z,4.18
2023-12-30T05:21:29.981Z,2.70
2023-12-30T05:22:32.435Z,5.55
2023-12-30T05:23:34.873Z,4.57
2023-12-30T05:24:37.659Z,3.85
2023-12-30T05:25:40.056Z,2.25
2023-12-30T05:26:42.532Z,4.75
2023-12-30T05:27:44.817Z,2.42
2023-12-30T05:28:47.971Z,3.03
2023-12-30T05:29:50.388Z,2.63
2023-12-30T05:30:52.943Z,2.80
2023-12-30T05:31:55.525Z,3.05
2023-12-30T05:32:57.846Z,3.22
2023-12-30T05:34:00.506Z,3.80
2023-12-30T05:35:03.356Z,3.95
2023-12-30T05:36:06.034Z,2.25
2023-12-30T05:37:08.454Z,2.42
2023-12-30T05:38:13.850Z,1.67
2023-12-30T05:39:16.314Z,2.65
2023-12-30T05:40:18.644Z,1.75
2023-12-30T05:41:21.064Z,1.70
2023-12-30T05:42:23.435Z,2.80
2023-12-30T05:43:27.217Z,2.30
2023-12-30T05:44:29.763Z,5.47
2023-12-30T05:45:32.431Z,3.50
2023-12-30T05:46:34.753Z,2.72
2023-12-30T05:47:37.126Z,2.70
2023-12-30T05:48:39.479Z,2.63
2023-12-30T05:49:42.269Z,1.40
2023-12-30T05:50:44.754Z,2.92
2023-12-30T05:51:47.036Z,2.08
2023-12-30T05:52:49.966Z,2.25
2023-12-30T05:53:52.605Z,3.92
2023-12-30T05:54:54.949Z,2.28
2023-12-30T05:55:57.304Z,1.75
2023-12-30T05:57:01.726Z,1.15
2023-12-30T05:58:04.461Z,2.08
2023-12-30T05:59:06.780Z,1.50
2023-12-30T06:00:10.269Z,3.22
2023-12-30T06:01:15.626Z,1.98
2023-12-30T06:02:17.903Z,1.88
2023-12-30T06:03:21.278Z,3.45
2023-12-30T06:04:23.604Z,1.20
2023-12-30T06:05:27.236Z,2.40
2023-12-30T06:06:31.377Z,1.90
2023-12-30T06:07:36.105Z,3.10
2023-12-30T06:08:38.574Z,2.30
2023-12-30T06:09:41.005Z,2.08
2023-12-30T06:10:43.304Z,1.73
2023-12-30T06:11:45.726Z,5.30
2023-12-30T06:12:48.237Z,3.22
2023-12-30T06:13:50.706Z,1.65
2023-12-30T06:14:53.005Z,2.33
2023-12-30T06:15:58.113Z,1.98
2023-12-30T06:17:00.475Z,1.67
2023-12-30T06:18:02.984Z,1.67
2023-12-30T06:19:05.368Z,2.45
2023-12-30T06:20:11.302Z,1.55
2023-12-30T06:21:13.590Z,1.27
2023-12-30T06:22:15.882Z,1.10
2023-12-30T06:23:18.293Z,1.05
2023-12-30T06:24:20.656Z,1.60
2023-12-30T06:25:23.139Z,1.15
2023-12-30T06:26:25.507Z,3.45
2023-12-30T06:27:27.812Z,1.45
2023-12-30T06:28:30.468Z,4.13
2023-12-30T06:29:33.657Z,2.72
2023-12-30T06:30:36.239Z,3.45
2023-12-30T06:31:43.054Z,1.80
2023-12-30T06:32:45.613Z,3.13
2023-12-30T06:33:48.158Z,4.80
2023-12-30T06:34:50.641Z,5.30
2023-12-30T06:35:53.184Z,2.30
2023-12-30T06:36:55.445Z,2.50
2023-12-30T06:37:57.927Z,0.82
2023-12-30T06:39:00.356Z,1.70
2023-12-30T06:40:04.026Z,2.70
2023-12-30T06:41:09.443Z,2.47
2023-12-30T06:42:11.794Z,4.43
2023-12-30T06:43:14.710Z,1.33
2023-12-30T06:44:17.594Z,3.50
2023-12-30T06:45:20.060Z,2.42
2023-12-30T06:46:22.577Z,1.77
2023-12-30T06:47:24.916Z,1.10
2023-12-30T06:48:27.327Z,0.60
2023-12-30T06:49:29.754Z,4.88
2023-12-30T06:50:32.052Z,2.35
2023-12-30T06:51:34.400Z,3.03
2023-12-30T06:52:36.756Z,2.90
2023-12-30T06:53:39.188Z,4.75
2023-12-30T06:54:41.960Z,1.23
2023-12-30T06:55:48.168Z,2.70
2023-12-30T06:56:51.141Z,7.30
2023-12-30T06:57:54.461Z,7.85
2023-12-30T06:58:56.818Z,6.28
2023-12-30T06:59:59.131Z,3.55
2023-12-30T07:01:01.598Z,1.40
2023-12-30T07:02:04.288Z,1.27
2023-12-30T07:03:07.035Z,3.28
2023-12-30T07:04:09.800Z,5.50
2023-12-30T07:05:12.855Z,5.50
2023-12-30T07:06:15.262Z,4.20
2023-12-30T07:07:17.541Z,3.65
2023-12-30T07:08:20.266Z,4.22
2023-12-30T07:09:22.609Z,3.20
2023-12-30T07:10:24.933Z,1.92
2023-12-30T07:11:27.258Z,3.60
2023-12-30T07:12:29.707Z,2.17
2023-12-30T07:13:32.431Z,3.03
2023-12-30T07:14:38.400Z,1.85
2023-12-30T07:15:40.892Z,1.50
2023-12-30T07:16:43.226Z,2.38
2023-12-30T07:17:47.191Z,1.63
2023-12-30T07:18:49.997Z,1.33
2023-12-30T07:19:52.385Z,1.90
2023-12-30T07:20:54.752Z,1.77
2023-12-30T07:21:57.357Z,4.25
2023-12-30T07:23:00.020Z,3.50
2023-12-30T07:24:02.466Z,1.35
2023-12-30T07:25:05.249Z,1.77
2023-12-30T07:26:08.489Z,3.13
2023-12-30T07:27:10.865Z,3.35
2023-12-30T07:28:13.428Z,2.15
2023-12-30T07:29:15.869Z,3.58
2023-12-30T07:30:18.407Z,3.67
2023-12-30T07:31:20.946Z,5.65
2023-12-30T07:32:23.383Z,4.57
2023-12-30T07:33:25.971Z,2.38
2023-12-30T07:34:28.397Z,4.10
2023-12-30T07:35:30.747Z,2.90
2023-12-30T07:36:33.366Z,1.02
2023-12-30T07:37:39.383Z,2.15
2023-12-30T07:38:42.165Z,2.15
2023-12-30T07:39:44.453Z,1.23
2023-12-30T07:40:47.155Z,4.63
2023-12-30T07:41:49.504Z,1.65
2023-12-30T07:42:51.982Z,1.33
2023-12-30T07:43:54.415Z,4.25
2023-12-30T07:44:56.784Z,2.03
2023-12-30T07:45:59.161Z,3.20
2023-12-30T07:47:01.929Z,1.15
2023-12-30T07:48:04.820Z,1.77
2023-12-30T07:49:07.398Z,2.15
2023-12-30T07:50:10.065Z,2.72
2023-12-30T07:51:12.411Z,1.42
2023-12-30T07:52:15.041Z,2.08
2023-12-30T07:53:17.404Z,1.25
2023-12-30T07:54:20.389Z,1.88
2023-12-30T07:55:22.789Z,1.13
2023-12-30T07:56:25.248Z,1.23
2023-12-30T07:57:27.850Z,2.40
2023-12-30T07:58:30.203Z,1.58
2023-12-30T07:59:32.558Z,0.68
2023-12-30T08:00:34.946Z,1.08
2023-12-30T08:01:42.804Z,2.05
2023-12-30T08:02:45.861Z,1.73
2023-12-30T08:03:48.234Z,2.25
2023-12-30T08:04:50.703Z,1.83
2023-12-30T08:05:53.048Z,3.30
2023-12-30T08:06:55.557Z,2.08
2023-12-30T08:07:58.006Z,2.45
2023-12-30T08:09:00.349Z,2.28
2023-12-30T08:10:02.830Z,1.38
2023-12-30T08:11:05.248Z,1.92
2023-12-30T08:12:07.863Z,2.25
2023-12-30T08:13:11.188Z,2.05
2023-12-30T08:14:14.883Z,3.03
2023-12-30T08:15:17.323Z,2.80
2023-12-30T08:16:19.872Z,2.28
2023-12-30T08:17:22.654Z,3.60
2023-12-30T08:18:25.280Z,1.45
2023-12-30T08:19:27.788Z,2.20
2023-12-30T08:20:30.507Z,1.70
2023-12-30T08:21:33.426Z,2.45
2023-12-30T08:22:35.804Z,1.23
2023-12-30T08:23:38.528Z,3.08
2023-12-30T08:24:40.943Z,3.45
2023-12-30T08:25:43.637Z,2.00
2023-12-30T08:26:46.047Z,1.83
2023-12-30T08:27:48.368Z,1.95
2023-12-30T08:28:52.660Z,4.07
2023-12-30T08:29:54.960Z,7.40
2023-12-30T08:30:58.770Z,3.35
2023-12-30T08:32:01.281Z,6.10
2023-12-30T08:33:08.403Z,5.13
2023-12-30T08:34:12.442Z,6.95
2023-12-30T08:35:14.918Z,2.90
2023-12-30T08:36:17.275Z,2.28
2023-12-30T08:37:19.793Z,2.65
2023-12-30T08:38:22.151Z,3.00
2023-12-30T08:39:24.525Z,3.05
2023-12-30T08:40:26.939Z,2.97
2023-12-30T08:41:29.487Z,1.50
2023-12-30T08:42:36.050Z,2.17
2023-12-30T08:43:38.504Z,1.90
2023-12-30T08:44:46.514Z,2.65
2023-12-30T08:45:48.932Z,2.50
2023-12-30T08:46:51.684Z,1.45
2023-12-30T08:47:54.254Z,3.58
2023-12-30T08:48:57.144Z,3.00
2023-12-30T08:49:59.751Z,3.00
2023-12-30T08:51:02.476Z,2.67
2023-12-30T08:52:06.301Z,6.47
2023-12-30T08:53:09.025Z,3.88
2023-12-30T08:54:11.281Z,2.70
2023-12-30T08:55:13.563Z,3.75
2023-12-30T08:56:15.940Z,3.22
2023-12-30T08:57:18.260Z,2.83
2023-12-30T08:58:22.455Z,5.20
2023-12-30T08:59:25.903Z,6.22
2023-12-30T09:00:28.397Z,2.20
2023-12-30T09:01:31.833Z,3.67
2023-12-30T09:02:34.289Z,3.08
2023-12-30T09:03:36.620Z,3.35
2023-12-30T09:04:39.153Z,3.03
2023-12-30T09:05:42.488Z,2.80
2023-12-30T09:06:44.786Z,2.42
2023-12-30T09:07:49.596Z,2.67
2023-12-30T09:08:52.089Z,2.67
2023-12-30T09:09:54.658Z,3.13
2023-12-30T09:10:58.207Z,1.73
2023-12-30T09:12:00.644Z,2.72
2023-12-30T09:13:04.484Z,3.95
2023-12-30T09:14:07.070Z,3.03
2023-12-30T09:15:09.717Z,1.40
2023-12-30T09:16:12.219Z,1.48
2023-12-30T09:17:14.746Z,4.32
2023-12-30T09:18:17.221Z,3.10
2023-12-30T09:19:19.861Z,1.98
2023-12-30T09:20:22.414Z,2.88
2023-12-30T09:21:25.154Z,1.80
2023-12-30T09:22:27.712Z,3.63
2023-12-30T09:23:30.200Z,2.25
2023-12-30T09:24:32.575Z,1.73
2023-12-30T09:25:35.055Z,6.90
2023-12-30T09:26:37.844Z,3.30
2023-12-30T09:27:40.216Z,4.75
2023-12-30T09:28:45.647Z,8.27
2023-12-30T09:29:48.214Z,6.18
2023-12-30T09:30:50.514Z,6.32
2023-12-30T09:31:52.894Z,5.80
2023-12-30T09:32:55.407Z,6.43
2023-12-30T09:33:58.078Z,6.70
2023-12-30T09:35:03.235Z,3.78
2023-12-30T09:36:06.417Z,2.88
2023-12-30T09:37:08.794Z,3.70
2023-12-30T09:38:11.495Z,1.90
2023-12-30T09:39:15.264Z,2.50
2023-12-30T09:40:19.164Z,1.75
2023-12-30T09:41:23.763Z,2.88
2023-12-30T09:42:27.005Z,2.40
2023-12-30T09:43:29.930Z,2.58
2023-12-30T09:44:33.463Z,4.32
2023-12-30T09:45:39.552Z,1.92
2023-12-30T09:46:42.024Z,1.10
2023-12-30T09:47:47.117Z,1.75
2023-12-30T09:48:51.425Z,1.65
2023-12-30T09:49:53.936Z,2.90
2023-12-30T09:50:57.708Z,3.58
2023-12-30T09:52:04.154Z,2.97
2023-12-30T09:53:06.847Z,3.05
2023-12-30T09:54:09.229Z,4.32
2023-12-30T09:55:11.651Z,5.32
2023-12-30T09:56:15.082Z,3.70
2023-12-30T09:57:17.881Z,8.48
2023-12-30T09:58:21.303Z,7.35
2023-12-30T09:59:27.896Z,6.10
2023-12-30T10:00:33.162Z,4.88
2023-12-30T10:01:37.233Z,3.90
2023-12-30T10:02:40.737Z,6.88
2023-12-30T10:03:44.065Z,4.25
2023-12-30T10:04:46.679Z,5.43
2023-12-30T10:05:50.620Z,5.38
2023-12-30T10:06:53.908Z,5.15
2023-12-30T10:07:56.198Z,4.55
2023-12-30T10:08:58.774Z,4.68
2023-12-30T10:10:01.331Z,5.80
2023-12-30T10:11:11.441Z,3.03
2023-12-30T10:12:13.892Z,5.35
2023-12-30T10:13:23.846Z,3.30
2023-12-30T10:14:26.770Z,3.60
2023-12-30T10:15:28.974Z,3.42
2023-12-30T10:16:31.572Z,4.03
2023-12-30T10:17:34.502Z,2.40
2023-12-30T10:18:40.711Z,2.90
2023-12-30T10:19:43.268Z,1.17
2023-12-30T10:20:47.919Z,4.47
2023-12-30T10:21:50.436Z,1.85
2023-12-30T10:22:53.050Z,4.00
2023-12-30T10:23:55.963Z,3.33
2023-12-30T10:24:58.252Z,3.38
2023-12-30T10:26:04.070Z,5.72
2023-12-30T10:27:06.439Z,4.13
2023-12-30T10:28:08.985Z,2.67
2023-12-30T10:29:12.433Z,4.25
2023-12-30T10:30:18.792Z,4.53
2023-12-30T10:31:21.484Z,7.05
2023-12-30T10:32:24.005Z,5.35
2023-12-30T10:33:26.540Z,7.03
2023-12-30T10:34:29.012Z,6.45
2023-12-30T10:35:32.441Z,4.50
2023-12-30T10:36:35.127Z,5.60
2023-12-30T10:37:37.690Z,10.50
2023-12-30T10:38:40.132Z,9.45
2023-12-30T10:39:43.579Z,5.80
2023-12-30T10:40:46.178Z,5.25
2023-12-30T10:41:48.829Z,5.68
2023-12-30T10:42:51.329Z,8.13
2023-12-30T10:43:54.137Z,6.60
2023-12-30T10:44:56.487Z,7.70
2023-12-30T10:46:00.773Z,7.10
2023-12-30T10:47:04.722Z,6.32
2023-12-30T10:48:08.745Z,9.02
2023-12-30T10:49:12.582Z,5.68
2023-12-30T10:50:15.878Z,6.22
2023-12-30T10:51:26.405Z,4.70
2023-12-30T10:52:29.418Z,6.03
2023-12-30T10:53:37.576Z,3.45
2023-12-30T10:54:42.877Z,7.82
2023-12-30T10:55:57.004Z,5.88
2023-12-30T10:57:03.955Z,5.32
2023-12-30T10:58:19.870Z,5.00
2023-12-30T10:59:23.358Z,4.68
2023-12-30T11:00:27.489Z,6.03
2023-12-30T11:01:31.115Z,2.95
2023-12-30T11:02:33.917Z,2.85
2023-12-30T11:03:36.938Z,4.72
2023-12-30T11:04:40.066Z,4.57
2023-12-30T11:05:56.303Z,3.55
2023-12-30T11:06:59.344Z,3.50
2023-12-30T11:08:01.992Z,6.55
2023-12-30T11:09:10.586Z,4.97
2023-12-30T11:10:23.669Z,4.05
2023-12-30T11:11:26.507Z,8.38
2023-12-30T11:12:31.487Z,4.25
2023-12-30T11:13:37.491Z,4.63
2023-12-30T11:14:39.953Z,3.55
2023-12-30T11:15:42.643Z,5.20
2023-12-30T11:16:45.965Z,3.63
2023-12-30T11:17:48.740Z,4.75
2023-12-30T11:18:52.081Z,5.45
2023-12-30T11:19:56.430Z,5.45
2023-12-30T11:20:58.839Z,2.45
2023-12-30T11:22:03.321Z,3.80
2023-12-30T11:23:06.260Z,3.33
2023-12-30T11:24:10.245Z,2.78
2023-12-30T11:25:15.227Z,3.17
2023-12-30T11:26:19.770Z,3.88
2023-12-30T11:27:24.176Z,4.82
2023-12-30T11:28:26.569Z,8.23
2023-12-30T11:29:30.044Z,6.50
2023-12-30T11:30:33.191Z,4.85
2023-12-30T11:31:36.205Z,3.88
2023-12-30T11:32:38.580Z,7.07
2023-12-30T11:33:41.469Z,6.43
2023-12-30T11:34:45.244Z,6.93
2023-12-30T11:35:50.092Z,4.28
2023-12-30T11:36:54.760Z,3.22
2023-12-30T11:37:58.604Z,4.45
2023-12-30T11:39:01.587Z,5.13
2023-12-30T11:40:06.045Z,3.17
2023-12-30T11:41:08.681Z,4.55
2023-12-30T11:42:11.088Z,2.90
2023-12-30T11:43:13.386Z,5.43
2023-12-30T11:44:16.175Z,3.38
2023-12-30T11:45:18.503Z,2.40
2023-12-30T11:46:20.997Z,2.75
2023-12-30T11:47:24.338Z,2.63
2023-12-30T11:48:26.995Z,2.50
2023-12-30T11:49:30.153Z,2.72
2023-12-30T11:50:33.206Z,4.47
2023-12-30T11:51:35.731Z,2.65
2023-12-30T11:52:38.342Z,3.28
2023-12-30T11:53:40.746Z,2.53
2023-12-30T11:54:43.024Z,4.35
2023-12-30T11:55:46.034Z,2.13
2023-12-30T11:56:48.547Z,2.40
2023-12-30T11:57:52.379Z,3.20
2023-12-30T11:58:56.025Z,3.53
2023-12-30T11:59:58.374Z,3.45
2023-12-30T12:01:01.023Z,3.58
2023-12-30T12:02:13.548Z,6.22
2023-12-30T12:03:16.165Z,2.83
2023-12-30T12:04:18.542Z,3.70
2023-12-30T12:05:21.127Z,2.70
2023-12-30T12:06:23.599Z,4.00
2023-12-30T12:07:25.999Z,7.18
2023-12-30T12:08:29.080Z,5.88
2023-12-30T12:09:31.588Z,4.15
2023-12-30T12:10:34.943Z,4.32
2023-12-30T12:11:37.344Z,3.08
2023-12-30T12:12:40.872Z,5.35
2023-12-30T12:13:43.484Z,4.82
2023-12-30T12:14:50.448Z,5.65
2023-12-30T12:15:54.873Z,6.88
2023-12-30T12:16:57.372Z,5.55
2023-12-30T12:18:00.060Z,3.58
2023-12-30T12:19:06.322Z,4.55
2023-12-30T12:20:12.283Z,5.53
2023-12-30T12:21:15.214Z,5.28
2023-12-30T12:22:17.748Z,5.38
2023-12-30T12:23:23.852Z,3.60
2023-12-30T12:24:26.579Z,2.97
2023-12-30T12:25:29.407Z,5.90
2023-12-30T12:26:33.302Z,4.43
2023-12-30T12:27:36.685Z,3.30
2023-12-30T12:28:39.266Z,3.05
2023-12-30T12:29:51.170Z,1.83
2023-12-30T12:30:53.751Z,3.10
2023-12-30T12:31:57.335Z,4.40
2023-12-30T12:32:59.820Z,3.58
2023-12-30T12:34:24.078Z,4.75
2023-12-30T12:35:26.803Z,9.10
2023-12-30T12:36:29.056Z,4.07
2023-12-30T12:37:31.496Z,5.40
2023-12-30T12:38:34.235Z,7.97
2023-12-30T12:39:37.148Z,5.13
2023-12-30T12:40:42.380Z,4.13
2023-12-30T12:41:46.485Z,5.20
2023-12-30T12:42:49.007Z,4.70
2023-12-30T12:43:51.984Z,4.85
2023-12-30T12:44:54.478Z,3.92
2023-12-30T12:45:57.089Z,5.88
2023-12-30T12:46:59.897Z,5.20
2023-12-30T12:48:03.920Z,8.43
2023-12-30T12:49:06.705Z,9.50
2023-12-30T12:50:09.536Z,6.85
2023-12-30T12:51:11.863Z,5.20
2023-12-30T12:52:14.173Z,4.45
2023-12-30T12:53:16.519Z,3.03
2023-12-30T12:54:19.314Z,2.53
2023-12-30T12:55:21.790Z,5.22
2023-12-30T12:56:24.218Z,4.10
2023-12-30T12:57:29.034Z,4.65
2023-12-30T12:58:34.135Z,3.72
2023-12-30T12:59:36.628Z,3.95
2023-12-30T13:00:39.349Z,3.45
2023-12-30T13:01:41.952Z,4.80
2023-12-30T13:02:44.311Z,3.58
2023-12-30T13:03:46.776Z,5.85
2023-12-30T13:04:49.182Z,6.38
2023-12-30T13:05:51.853Z,7.85
2023-12-30T13:06:54.941Z,10.02
2023-12-30T13:07:57.776Z,6.63
2023-12-30T13:09:01.073Z,6.47
2023-12-30T13:10:35.546Z,5.93
2023-12-30T13:11:46.126Z,7.85
2023-12-30T13:12:53.961Z,9.50
2023-12-30T13:13:57.117Z,6.45
2023-12-30T13:15:00.280Z,8.65
2023-12-30T13:16:05.159Z,6.22
2023-12-30T13:17:15.554Z,6.55
2023-12-30T13:18:20.688Z,5.18
2023-12-30T13:19:25.391Z,4.82
2023-12-30T13:20:32.253Z,2.55
2023-12-30T13:21:35.004Z,5.00
2023-12-30T13:22:38.097Z,6.53
2023-12-30T13:23:43.937Z,5.65
2023-12-30T13:24:46.482Z,6.60
2023-12-30T13:25:49.485Z,4.38
2023-12-30T13:26:52.345Z,3.90
2023-12-30T13:27:55.185Z,5.47
2023-12-30T13:28:57.905Z,3.53
2023-12-30T13:30:00.327Z,3.90
2023-12-30T13:31:02.754Z,3.47
2023-12-30T13:32:05.763Z,5.07
2023-12-30T13:33:10.717Z,3.90
2023-12-30T13:34:13.798Z,7.47
2023-12-30T13:35:16.692Z,3.88
2023-12-30T13:36:19.248Z,4.05
2023-12-30T13:37:23.693Z,7.32
2023-12-30T13:38:29.021Z,5.07
2023-12-30T13:39:32.019Z,4.07
2023-12-30T13:40:34.801Z,4.70
2023-12-30T13:41:38.012Z,2.47
2023-12-30T13:42:41.980Z,2.08
2023-12-30T13:43:48.164Z,8.77
2023-12-30T13:44:52.697Z,4.45
2023-12-30T13:46:02.041Z,2.90
2023-12-30T13:47:24.478Z,6.35
2023-12-30T13:48:42.251Z,3.72
2023-12-30T13:50:08.157Z,4.18
2023-12-30T13:51:13.224Z,4.70
2023-12-30T13:52:17.595Z,4.60
2023-12-30T13:53:21.523Z,2.67
2023-12-30T13:54:24.684Z,3.45
2023-12-30T13:55:29.421Z,3.85
2023-12-30T13:56:37.226Z,3.05
2023-12-30T13:57:39.803Z,4.47
2023-12-30T13:58:43.602Z,5.22
2023-12-30T13:59:46.529Z,4.07
2023-12-30T14:00:49.235Z,4.78
2023-12-30T14:01:51.892Z,5.18
2023-12-30T14:02:55.574Z,4.55
2023-12-30T14:03:58.258Z,4.03